createdAt,value
2022-08-14T00:01:32.062Z,100200.28
2022-08-14T00:04:34.161Z,100206.00
2022-08-14T00:07:27.227Z,100206.38
2022-08-14T00:10:52.533Z,100204.75
2022-08-14T00:13:30.971Z,100206.69
2022-08-14T00:16:41.274Z,100210.72
2022-08-14T00:19:29.401Z,100204.78
2022-08-14T00:22:44.335Z,100196.72
2022-08-14T00:25:30.712Z,100192.81
2022-08-14T00:28:32.858Z,100193.06
2022-08-14T00:31:35.382Z,100195.97
2022-08-14T00:34:37.951Z,100191.78
2022-08-14T00:37:36.151Z,100187.44
2022-08-14T00:40:32.958Z,100188.97
2022-08-14T00:43:24.178Z,100194.31
2022-08-14T00:46:32.088Z,100181.03
2022-08-14T00:49:21.843Z,100178.06
2022-08-14T00:52:18.230Z,100182.25
2022-08-14T00:55:10.084Z,100182.53
2022-08-14T00:58:20.305Z,100178.22
2022-08-14T01:01:21.233Z,100174.34
2022-08-14T01:04:51.459Z,100176.44
2022-08-14T01:07:23.104Z,100183.88
2022-08-14T01:10:12.201Z,100181.44
2022-08-14T01:13:01.355Z,100181.66
2022-08-14T01:15:58.636Z,100186.84
2022-08-14T01:19:08.688Z,100186.84
2022-08-14T01:22:01.226Z,100182.09
2022-08-14T01:24:50.875Z,100189.53
2022-08-14T01:27:53.502Z,100180.22
2022-08-14T01:30:46.111Z,100180.44
2022-08-14T01:33:39.554Z,100180.50
2022-08-14T01:36:43.382Z,100180.50
2022-08-14T01:39:33.593Z,100179.22
2022-08-14T01:42:31.208Z,100175.53
2022-08-14T01:45:25.519Z,100181.78
2022-08-14T01:48:16.131Z,100182.81
2022-08-14T01:51:20.032Z,100177.44
2022-08-14T01:54:14.219Z,100182.38
2022-08-14T01:57:04.913Z,100179.22
2022-08-14T01:59:58.100Z,100179.56
2022-08-14T02:02:46.762Z,100173.16
2022-08-14T02:05:38.741Z,100172.84
2022-08-14T02:08:35.689Z,100183.13
2022-08-14T02:11:25.507Z,100184.34
2022-08-14T02:14:15.655Z,100174.03
2022-08-14T02:17:23.136Z,100171.97
2022-08-14T02:20:13.962Z,100156.22
2022-08-14T02:23:04.114Z,100157.84
2022-08-14T02:25:54.635Z,100159.13
2022-08-14T02:28:56.660Z,100162.88
2022-08-14T02:31:50.220Z,100163.50
2022-08-14T02:34:39.005Z,100164.31
2022-08-14T02:37:46.429Z,100153.59
2022-08-14T02:40:37.809Z,100153.00
2022-08-14T02:43:37.329Z,100156.94
2022-08-14T02:46:35.579Z,100144.38
2022-08-14T02:49:33.085Z,100139.22
2022-08-14T02:52:55.792Z,100142.28
2022-08-14T02:55:32.328Z,100144.81
2022-08-14T02:58:30.649Z,100147.31
2022-08-14T03:01:24.046Z,100146.88
2022-08-14T03:04:15.206Z,100153.16
2022-08-14T03:07:09.570Z,100148.75
2022-08-14T03:10:27.433Z,100154.31
2022-08-14T03:13:06.621Z,100148.22
2022-08-14T03:16:09.407Z,100143.47
2022-08-14T03:19:09.790Z,100151.34
2022-08-14T03:22:00.347Z,100148.31
2022-08-14T03:24:50.355Z,100151.97
2022-08-14T03:27:48.438Z,100154.31
2022-08-14T03:30:47.355Z,100150.19
2022-08-14T03:33:40.283Z,100150.09
2022-08-14T03:37:37.938Z,100152.56
2022-08-14T03:39:40.769Z,100148.91
2022-08-14T03:42:36.610Z,100144.50
2022-08-14T03:45:34.660Z,100142.19
2022-08-14T03:48:30.116Z,100145.84
2022-08-14T03:51:19.602Z,100139.75
2022-08-14T03:54:10.943Z,100137.66
2022-08-14T03:57:04.977Z,100137.81
2022-08-14T03:59:54.800Z,100136.59
2022-08-14T04:02:47.104Z,100131.25
2022-08-14T04:05:43.232Z,100131.69
2022-08-14T04:08:37.741Z,100140.78
2022-08-14T04:11:26.301Z,100137.50
2022-08-14T04:14:15.224Z,100142.88
2022-08-14T04:17:05.797Z,100137.94
2022-08-14T04:19:59.448Z,100140.78
2022-08-14T04:22:50.399Z,100135.41
2022-08-14T04:25:43.269Z,100135.03
2022-08-14T04:29:08.606Z,100137.94
2022-08-14T04:33:01.722Z,100137.06
2022-08-14T04:34:56.863Z,100136.16
2022-08-14T04:38:02.949Z,100133.63
2022-08-14T04:41:20.619Z,100129.31
2022-08-14T04:44:13.395Z,100127.81
2022-08-14T04:47:32.950Z,100129.03
2022-08-14T04:50:33.816Z,100122.28
2022-08-14T04:53:34.640Z,100118.56
2022-08-14T04:56:33.869Z,100110.69
2022-08-14T04:59:23.643Z,100106.19
2022-08-14T05:02:13.610Z,100103.38
2022-08-14T05:05:02.176Z,100106.78
2022-08-14T05:08:01.121Z,100107.16
2022-08-14T05:10:52.114Z,100102.03
2022-08-14T05:16:50.444Z,100104.25
2022-08-14T05:19:44.197Z,100106.06
2022-08-14T05:22:47.471Z,100110.75
2022-08-14T05:25:47.579Z,100111.63
2022-08-14T05:28:38.020Z,100099.94
2022-08-14T05:31:39.342Z,100102.44
2022-08-14T05:34:31.839Z,100096.50
2022-08-14T05:37:20.731Z,100101.84
2022-08-14T05:40:10.291Z,100100.59
2022-08-14T05:43:02.302Z,100094.00
2022-08-14T05:45:55.447Z,100095.63
2022-08-14T05:48:44.168Z,100090.72
2022-08-14T05:51:33.872Z,100095.28
2022-08-14T05:54:26.948Z,100095.28
2022-08-14T05:57:16.034Z,100089.91
2022-08-14T06:00:07.197Z,100087.41
2022-08-14T06:02:57.607Z,100091.72
2022-08-14T06:05:47.707Z,100087.75
2022-08-14T06:08:41.300Z,100088.94
2022-08-14T06:11:31.156Z,100088.34
2022-08-14T06:14:21.455Z,100078.03
2022-08-14T06:17:25.707Z,100087.75
2022-08-14T06:20:15.979Z,100074.56
2022-08-14T06:23:10.602Z,100078.66
2022-08-14T06:25:59.335Z,100076.56
2022-08-14T06:28:47.767Z,100064.81
2022-08-14T06:31:41.043Z,100061.75
2022-08-14T06:35:03.560Z,100053.88
2022-08-14T06:37:45.129Z,100057.34
2022-08-14T06:40:42.839Z,100054.22
2022-08-14T06:43:32.522Z,100053.88
2022-08-14T06:46:32.610Z,100041.84
2022-08-14T06:49:23.382Z,100041.84
2022-08-14T06:52:15.078Z,100038.28
2022-08-14T06:55:04.812Z,100046.34
2022-08-14T06:57:53.949Z,100035.63
2022-08-14T07:01:03.797Z,100029.19
2022-08-14T07:04:18.834Z,100028.16
2022-08-14T07:07:13.214Z,100027.25
2022-08-14T07:10:02.996Z,100027.25
2022-08-14T07:13:01.128Z,100035.66
2022-08-14T07:15:55.266Z,100023.09
2022-08-14T07:18:45.633Z,100028.38
2022-08-14T07:21:39.723Z,100028.13
2022-08-14T07:24:31.762Z,100024.84
2022-08-14T07:27:20.420Z,100020.06
2022-08-14T07:30:34.659Z,100021.75
2022-08-14T07:33:24.530Z,100017.53
2022-08-14T07:36:27.073Z,100010.53
2022-08-14T07:39:18.609Z,100009.25
2022-08-14T07:42:20.055Z,99998.91
2022-08-14T07:45:12.505Z,100009.78
2022-08-14T07:48:01.146Z,100013.50
2022-08-14T07:50:50.711Z,100001.38
2022-08-14T07:53:41.217Z,100005.03
2022-08-14T07:56:44.422Z,100000.69
2022-08-14T07:59:42.217Z,99994.56
2022-08-14T08:02:32.901Z,99982.19
2022-08-14T08:05:24.321Z,99989.91
2022-08-14T08:08:26.610Z,99989.69
2022-08-14T08:11:19.378Z,99985.84
2022-08-14T08:14:17.176Z,99983.44
2022-08-14T08:17:07.749Z,99993.69
2022-08-14T08:19:57.320Z,99989.16
2022-08-14T08:22:48.425Z,99979.22
2022-08-14T08:25:40.417Z,99985.31
2022-08-14T08:28:30.214Z,99981.91
2022-08-14T08:31:18.737Z,99991.97
2022-08-14T08:34:14.268Z,99985.69
2022-08-14T08:37:07.258Z,99985.13
2022-08-14T08:40:03.403Z,99986.94
2022-08-14T08:42:53.283Z,99977.94
2022-08-14T08:45:42.936Z,99983.00
2022-08-14T08:48:36.450Z,99972.00
2022-08-14T08:51:34.361Z,99970.84
2022-08-14T08:54:26.689Z,99968.00
2022-08-14T08:57:21.505Z,99963.38
2022-08-14T09:00:25.887Z,99963.66
2022-08-14T09:03:20.414Z,99951.84
2022-08-14T09:06:53.964Z,99947.16
2022-08-14T09:09:23.841Z,99940.41
2022-08-14T09:12:14.002Z,99935.38
2022-08-14T09:15:11.424Z,99932.34
2022-08-14T09:18:01.217Z,99937.47
2022-08-14T09:20:51.407Z,99934.91
2022-08-14T09:24:25.866Z,99935.38
2022-08-14T09:26:53.337Z,99923.66
2022-08-14T09:29:42.069Z,99918.78
2022-08-14T09:32:58.862Z,99918.53
2022-08-14T09:35:56.525Z,99913.41
2022-08-14T09:38:48.651Z,99911.28
2022-08-14T09:42:21.253Z,99908.03
2022-08-14T09:45:10.542Z,99906.97
2022-08-14T09:47:59.404Z,99896.00
2022-08-14T09:50:50.498Z,99889.31
2022-08-14T09:54:18.503Z,99881.81
2022-08-14T09:56:57.320Z,99872.72
2022-08-14T09:59:50.315Z,99865.69
2022-08-14T10:02:46.139Z,99872.25
2022-08-14T10:05:39.270Z,99865.25
2022-08-14T10:08:28.053Z,99856.13
2022-08-14T10:11:19.359Z,99851.09
2022-08-14T10:14:29.109Z,99844.91
2022-08-14T10:17:38.447Z,99841.16
2022-08-14T10:20:40.177Z,99838.81
2022-08-14T10:23:43.375Z,99836.50
2022-08-14T10:26:31.921Z,99826.06
2022-08-14T10:29:32.610Z,99825.25
2022-08-14T10:32:28.512Z,99826.06
2022-08-14T10:35:18.986Z,99807.00
2022-08-14T10:38:13.041Z,99805.81
2022-08-14T10:41:13.288Z,99809.31
2022-08-14T10:44:09.041Z,99810.94
2022-08-14T10:47:41.340Z,99799.69
2022-08-14T10:50:30.460Z,99798.06
2022-08-14T10:53:31.020Z,99798.66
2022-08-14T10:56:34.230Z,99784.72
2022-08-14T10:59:30.598Z,99781.00
2022-08-14T11:02:50.111Z,99788.31
2022-08-14T11:05:44.542Z,99787.59
2022-08-14T11:08:36.041Z,99785.78
2022-08-14T11:11:28.558Z,99781.47
2022-08-14T11:14:26.549Z,99781.47
2022-08-14T11:17:15.497Z,99779.84
2022-08-14T11:20:13.836Z,99775.38
2022-08-14T11:23:07.793Z,99772.19
2022-08-14T11:26:01.673Z,99768.44
2022-08-14T11:28:51.986Z,99770.06
2022-08-14T11:31:41.595Z,99764.22
2022-08-14T11:34:32.110Z,99767.47
2022-08-14T11:37:36.393Z,99780.44
2022-08-14T11:40:30.726Z,99770.59
2022-08-14T11:43:29.654Z,99764.97
2022-08-14T11:46:30.204Z,99769.78
2022-08-14T11:49:34.178Z,99768.81
2022-08-14T11:52:23.598Z,99760.31
2022-08-14T11:55:15.616Z,99765.03
2022-08-14T11:58:08.837Z,99760.94
2022-08-14T12:01:01.904Z,99759.97
2022-08-14T12:03:57.283Z,99752.53
2022-08-14T12:06:52.547Z,99753.59
2022-08-14T12:09:42.984Z,99753.53
2022-08-14T12:12:34.810Z,99751.34
2022-08-14T12:15:32.749Z,99750.28
2022-08-14T12:18:34.415Z,99750.00
2022-08-14T12:21:25.831Z,99752.28
2022-08-14T12:24:36.084Z,99751.00
2022-08-14T12:27:26.045Z,99752.28
2022-08-14T12:30:29.422Z,99749.28
2022-08-14T12:33:32.915Z,99742.81
2022-08-14T12:36:23.844Z,99745.13
2022-08-14T12:39:21.363Z,99734.88
2022-08-14T12:42:11.649Z,99742.06
2022-08-14T12:45:17.395Z,99736.16
2022-08-14T12:48:21.379Z,99734.53
2022-08-14T12:51:21.689Z,99729.81
2022-08-14T12:54:27.159Z,99717.47
2022-08-14T12:57:20.439Z,99720.63
2022-08-14T13:00:23.008Z,99708.34
2022-08-14T13:03:25.028Z,99709.25
2022-08-14T13:06:15.615Z,99701.78
2022-08-14T13:09:05.301Z,99698.56
2022-08-14T13:12:31.871Z,99689.78
2022-08-14T13:15:16.049Z,99684.94
2022-08-14T13:18:05.621Z,99683.47
2022-08-14T13:20:57.850Z,99683.53
2022-08-14T13:23:49.758Z,99676.38
2022-08-14T13:26:38.421Z,99672.00
2022-08-14T13:29:29.627Z,99669.84
2022-08-14T13:32:20.690Z,99658.94
2022-08-14T13:35:12.262Z,99663.03
2022-08-14T13:38:05.005Z,99655.31
2022-08-14T13:40:56.687Z,99640.81
2022-08-14T13:43:49.202Z,99631.16
2022-08-14T13:46:50.297Z,99627.41
2022-08-14T13:49:57.487Z,99612.25
2022-08-14T13:52:54.739Z,99618.22
2022-08-14T13:55:44.121Z,99610.63
2022-08-14T13:58:41.343Z,99603.13
2022-08-14T14:01:43.544Z,99604.25
2022-08-14T14:04:34.699Z,99602.63
2022-08-14T14:07:24.705Z,99593.28
2022-08-14T14:10:28.189Z,99593.59
2022-08-14T14:13:18.399Z,99591.66
2022-08-14T14:16:08.752Z,99581.69
2022-08-14T14:19:06.107Z,99576.31
2022-08-14T14:21:59.342Z,99573.97
2022-08-14T14:24:47.865Z,99564.09
2022-08-14T14:27:40.839Z,99557.59
2022-08-14T14:30:51.722Z,99555.97
2022-08-14T14:33:49.014Z,99555.47
2022-08-14T14:36:38.087Z,99555.53
2022-08-14T14:39:30.880Z,99561.25
2022-08-14T14:42:32.294Z,99550.06
2022-08-14T14:45:24.558Z,99552.22
2022-08-14T14:48:15.632Z,99545.25
2022-08-14T14:51:04.527Z,99548.25
2022-08-14T14:53:53.478Z,99546.31
2022-08-14T14:56:48.361Z,99544.09
2022-08-14T14:59:40.662Z,99537.56
2022-08-14T15:02:43.804Z,99538.97
2022-08-14T15:05:33.214Z,99539.72
2022-08-14T15:08:26.633Z,99547.88
2022-08-14T15:11:31.914Z,99542.47
2022-08-14T15:14:55.589Z,99539.00
2022-08-14T15:17:40.798Z,99536.66
2022-08-14T15:20:31.400Z,99542.81
2022-08-14T15:23:22.386Z,99530.63
2022-08-14T15:26:13.075Z,99530.13
2022-08-14T15:29:15.137Z,99533.81
2022-08-14T15:32:08.689Z,99531.09
2022-08-14T15:34:59.151Z,99528.44
2022-08-14T15:37:55.647Z,99526.91
2022-08-14T15:40:44.516Z,99524.69
2022-08-14T15:43:40.303Z,99519.81
2022-08-14T15:46:43.369Z,99518.78
2022-08-14T15:49:35.681Z,99514.50
2022-08-14T15:52:32.789Z,99515.56
2022-08-14T15:55:24.159Z,99506.97
2022-08-14T15:58:14.309Z,99506.88
2022-08-14T16:01:37.066Z,99507.41
2022-08-14T16:04:31.262Z,99504.72
2022-08-14T16:07:27.150Z,99500.91
2022-08-14T16:10:29.117Z,99507.63
2022-08-14T16:13:22.923Z,99499.28
2022-08-14T16:16:34.572Z,99503.09
2022-08-14T16:19:47.510Z,99497.16
2022-08-14T16:22:59.241Z,99503.63
2022-08-14T16:25:48.185Z,99490.69
2022-08-14T16:28:41.414Z,99492.31
2022-08-14T16:31:36.189Z,99493.38
2022-08-14T16:34:46.970Z,99486.38
2022-08-14T16:37:35.329Z,99482.06
2022-08-14T16:43:16.038Z,99481.59
2022-08-14T16:46:06.813Z,99476.72
2022-08-14T16:48:57.519Z,99479.38
2022-08-14T16:51:51.332Z,99468.28
2022-08-14T16:54:44.550Z,99470.75
2022-08-14T16:57:35.810Z,99465.06
2022-08-14T17:03:17.657Z,99463.22
2022-08-14T17:08:57.667Z,99455.59
2022-08-14T17:11:54.422Z,99451.34
2022-08-14T17:14:57.588Z,99452.09
2022-08-14T17:17:54.456Z,99439.44
2022-08-14T17:21:00.456Z,99442.63
2022-08-14T17:23:55.305Z,99442.06
2022-08-14T17:26:45.843Z,99443.69
2022-08-14T17:29:44.286Z,99436.69
2022-08-14T17:36:11.140Z,99443.69
2022-08-14T17:42:33.638Z,99441.75
2022-08-14T17:45:26.851Z,99440.94
2022-08-14T17:49:10.899Z,99450.09
2022-08-14T17:52:01.551Z,99451.72
2022-08-14T17:54:53.073Z,99451.22
2022-08-14T17:57:47.865Z,99448.78
2022-08-14T18:00:39.931Z,99457.09
2022-08-14T18:03:44.796Z,99449.00
2022-08-14T18:06:57.953Z,99452.53
2022-08-14T18:09:57.261Z,99458.72
2022-08-14T18:12:47.312Z,99457.09
2022-08-14T18:15:37.117Z,99459.22
2022-08-14T18:18:26.210Z,99453.28
2022-08-14T18:21:42.213Z,99452.22
2022-08-14T18:24:31.811Z,99448.16
2022-08-14T18:27:23.086Z,99447.34
2022-08-14T18:30:33.072Z,99444.13
2022-08-14T18:33:23.052Z,99448.94
2022-08-14T18:36:48.658Z,99445.19
2022-08-14T18:39:32.909Z,99454.56
2022-08-14T18:45:28.911Z,99473.09
2022-08-14T18:48:50.628Z,99465.84
2022-08-14T18:51:45.756Z,99465.03
2022-08-14T18:54:38.842Z,99458.53
2022-08-14T18:57:40.617Z,99463.41
2022-08-14T19:00:52.050Z,99463.94
2022-08-14T19:03:49.614Z,99463.94
2022-08-14T19:06:56.227Z,99457.72
2022-08-14T19:10:06.232Z,99460.38
2022-08-14T19:13:13.126Z,99466.00
2022-08-14T19:27:19.688Z,99480.00
2022-08-14T19:30:24.796Z,99481.59
2022-08-14T19:42:46.454Z,99482.41
2022-08-14T19:45:38.104Z,99475.41
2022-08-14T19:51:18.871Z,99475.66
2022-08-14T19:56:47.818Z,99467.03
2022-08-14T19:59:57.767Z,99473.47
2022-08-14T20:02:49.042Z,99476.97
2022-08-14T20:05:45.481Z,99481.53
2022-08-14T20:11:01.430Z,99477.72
2022-08-14T20:12:01.885Z,99477.72
2022-08-14T20:14:53.597Z,99480.41
2022-08-14T20:17:43.339Z,99481.47
2022-08-14T20:20:33.992Z,99472.09
2022-08-14T20:23:22.428Z,99467.06
2022-08-14T20:26:30.456Z,99473.19
2022-08-14T20:29:31.300Z,99485.22
2022-08-14T20:32:34.966Z,99479.84
2022-08-14T20:35:35.513Z,99478.22
2022-08-14T20:38:32.506Z,99486.53
2022-08-14T20:41:22.203Z,99481.34
2022-08-14T20:44:28.958Z,99474.59
2022-08-14T20:47:17.520Z,99474.59
2022-08-14T20:50:16.302Z,99473.53
2022-08-14T20:53:28.604Z,99475.66
2022-08-14T20:56:28.893Z,99477.28
2022-08-14T20:59:20.762Z,99471.59
2022-08-14T21:02:30.516Z,99476.97
2022-08-14T21:05:33.912Z,99479.09
2022-08-14T21:08:23.784Z,99479.56
2022-08-14T21:11:18.020Z,99468.63
2022-08-14T21:14:19.959Z,99472.09
2022-08-14T21:17:15.165Z,99459.53
2022-08-14T21:20:25.784Z,99461.75
2022-08-14T21:23:16.050Z,99446.16
2022-08-14T21:26:07.582Z,99450.97
2022-08-14T21:28:57.352Z,99446.94
2022-08-14T21:31:55.851Z,99450.50
2022-08-14T21:34:55.456Z,99452.13
2022-08-14T21:37:47.894Z,99449.91
2022-08-14T21:40:41.776Z,99454.06
2022-08-14T21:43:34.466Z,99450.22
2022-08-14T21:46:28.435Z,99445.00
2022-08-14T21:49:19.247Z,99446.81
2022-08-14T21:52:52.011Z,99447.31
2022-08-14T21:55:23.718Z,99442.44
2022-08-14T21:58:52.803Z,99434.31
2022-08-14T22:01:21.568Z,99436.69
2022-08-14T22:04:33.817Z,99433.19
2022-08-14T22:07:29.332Z,99443.13
2022-08-14T22:10:22.975Z,99440.13
2022-08-14T22:13:14.022Z,99433.09
2022-08-14T22:16:06.040Z,99436.84
2022-08-14T22:19:17.072Z,99435.19
2022-08-14T22:22:07.627Z,99430.31
2022-08-14T22:25:01.207Z,99430.31
2022-08-14T22:27:56.349Z,99421.69
2022-08-14T22:30:47.270Z,99430.81
2022-08-14T22:33:44.376Z,99428.66
2022-08-14T22:36:50.746Z,99420.59
2022-08-14T22:40:17.791Z,99428.66
2022-08-14T22:42:59.977Z,99423.50
2022-08-14T22:45:55.491Z,99415.41
2022-08-14T22:48:46.626Z,99423.69
2022-08-14T22:51:48.165Z,99421.56
2022-08-14T22:54:52.537Z,99424.91
2022-08-14T22:57:43.515Z,99427.59
2022-08-14T23:00:32.759Z,99421.31
2022-08-14T23:03:23.179Z,99428.94
2022-08-14T23:07:03.043Z,99426.84
2022-08-14T23:09:35.996Z,99427.56
2022-08-14T23:12:31.881Z,99421.09
2022-08-14T23:15:29.861Z,99414.69
2022-08-14T23:18:24.090Z,99420.13
2022-08-14T23:21:22.008Z,99419.69
2022-08-14T23:24:13.992Z,99423.94
2022-08-14T23:27:03.053Z,99419.25
2022-08-14T23:29:57.999Z,99414.06
2022-08-14T23:32:47.112Z,99412.94
2022-08-14T23:35:59.050Z,99409.34
2022-08-14T23:38:49.800Z,99407.91
2022-08-14T23:41:46.169Z,99398.22
2022-08-14T23:44:45.944Z,99398.47
2022-08-14T23:47:51.147Z,99396.53
2022-08-14T23:50:44.301Z,99391.66
2022-08-14T23:53:47.768Z,99384.66
2022-08-14T23:56:39.695Z,99388.41
2022-08-14T23:59:31.624Z,99385.63
